sensor_id;sensor_type;location;lat;lon;timestamp;pressure;altitude;pressure_sealevel;temperature;humidity
45255;BME280;30989;52.078;21.014;2022-07-23T00:00:52;169688.97;;;22.51;67.78
45255;BME280;30989;52.078;21.014;2022-07-23T00:03:18;169676.81;;;22.47;68.05
45255;BME280;30989;52.078;21.014;2022-07-23T00:05:44;169639.06;;;22.33;68.44
45255;BME280;30989;52.078;21.014;2022-07-23T00:08:09;169612.09;;;22.23;68.93
45255;BME280;30989;52.078;21.014;2022-07-23T00:10:35;169595.94;;;22.16;69.34
45255;BME280;30989;52.078;21.014;2022-07-23T00:13:01;169564.91;;;22.05;69.57
45255;BME280;30989;52.078;21.014;2022-07-23T00:15:26;169559.53;;;22.03;69.69
45255;BME280;30989;52.078;21.014;2022-07-23T00:17:52;169554.09;;;22.01;70.19
45255;BME280;30989;52.078;21.014;2022-07-23T00:20:17;169533.88;;;21.93;70.39
45255;BME280;30989;52.078;21.014;2022-07-23T00:22:51;169539.25;;;21.95;70.72
45255;BME280;30989;52.078;21.014;2022-07-23T00:25:17;169533.88;;;21.93;70.99
45255;BME280;30989;52.078;21.014;2022-07-23T00:27:43;169528.47;;;21.91;71.28
45255;BME280;30989;52.078;21.014;2022-07-23T00:30:09;169512.28;;;21.85;71.25
45255;BME280;30989;52.078;21.014;2022-07-23T00:32:49;169516.34;;;21.86;71.64
45255;BME280;30989;52.078;21.014;2022-07-23T00:35:16;169502.84;;;21.81;71.84
45255;BME280;30989;52.078;21.014;2022-07-23T00:37:41;169481.28;;;21.73;72.13
45255;BME280;30989;52.078;21.014;2022-07-23T00:40:07;169470.50;;;21.69;72.03
45255;BME280;30989;52.078;21.014;2022-07-23T00:42:33;169465.13;;;21.67;72.36
45255;BME280;30989;52.078;21.014;2022-07-23T00:44:58;169440.84;;;21.58;72.47
45255;BME280;30989;52.078;21.014;2022-07-23T00:47:24;169419.28;;;21.50;72.83
45255;BME280;30989;52.078;21.014;2022-07-23T00:49:50;169422.00;;;21.51;73.11
45255;BME280;30989;52.078;21.014;2022-07-23T00:52:15;169409.84;;;21.46;73.32
45255;BME280;30989;52.078;21.014;2022-07-23T00:54:41;169393.69;;;21.40;73.46
45255;BME280;30989;52.078;21.014;2022-07-23T00:57:07;169378.84;;;21.35;73.87
45255;BME280;30989;52.078;21.014;2022-07-23T00:59:33;169339.72;;;21.20;74.01
45255;BME280;30989;52.078;21.014;2022-07-23T01:01:59;169338.38;;;21.19;74.16
45255;BME280;30989;52.078;21.014;2022-07-23T01:04:24;169318.16;;;21.12;74.71
45255;BME280;30989;52.078;21.014;2022-07-23T01:06:50;169307.38;;;21.08;74.76
45255;BME280;30989;52.078;21.014;2022-07-23T01:09:16;169307.38;;;21.08;75.00
45255;BME280;30989;52.078;21.014;2022-07-23T01:11:41;169293.91;;;21.03;75.33
45255;BME280;30989;52.078;21.014;2022-07-23T01:14:13;169275.03;;;20.96;75.37
45255;BME280;30989;52.078;21.014;2022-07-23T01:16:40;169256.19;;;20.88;75.31
45255;BME280;30989;52.078;21.014;2022-07-23T01:19:06;169264.28;;;20.91;75.62
45255;BME280;30989;52.078;21.014;2022-07-23T01:21:38;169261.56;;;20.90;75.85
45255;BME280;30989;52.078;21.014;2022-07-23T01:24:04;169249.44;;;20.86;75.88
45255;BME280;30989;52.078;21.014;2022-07-23T01:26:31;169245.41;;;20.84;76.06
45255;BME280;30989;52.078;21.014;2022-07-23T01:28:57;169225.16;;;20.77;76.32
45255;BME280;30989;52.078;21.014;2022-07-23T01:31:22;169240.03;;;20.82;76.27
45255;BME280;30989;52.078;21.014;2022-07-23T01:33:48;169222.44;;;20.76;76.38
45255;BME280;30989;52.078;21.014;2022-07-23T01:36:14;169211.66;;;20.72;76.81
45255;BME280;30989;52.078;21.014;2022-07-23T01:38:40;169211.66;;;20.72;76.76
45255;BME280;30989;52.078;21.014;2022-07-23T01:41:05;169199.53;;;20.67;76.99
45255;BME280;30989;52.078;21.014;2022-07-23T01:43:31;169200.91;;;20.68;76.78
45255;BME280;30989;52.078;21.014;2022-07-23T01:45:56;169191.47;;;20.64;76.97
45255;BME280;30989;52.078;21.014;2022-07-23T01:48:24;169179.34;;;20.59;77.00
45255;BME280;30989;52.078;21.014;2022-07-23T01:51:28;169180.69;;;20.60;77.07
45255;BME280;30989;52.078;21.014;2022-07-23T01:54:04;169168.56;;;20.55;77.23
45255;BME280;30989;52.078;21.014;2022-07-23T01:56:30;169173.94;;;20.57;77.41
45255;BME280;30989;52.078;21.014;2022-07-23T01:58:55;169161.81;;;20.53;77.69
45255;BME280;30989;52.078;21.014;2022-07-23T02:01:22;169151.06;;;20.49;77.88
45255;BME280;30989;52.078;21.014;2022-07-23T02:03:47;169161.81;;;20.53;77.90
45255;BME280;30989;52.078;21.014;2022-07-23T02:06:13;169153.75;;;20.50;77.47
45255;BME280;30989;52.078;21.014;2022-07-23T02:08:38;169153.75;;;20.50;77.67
45255;BME280;30989;52.078;21.014;2022-07-23T02:11:04;169152.41;;;20.49;77.71
45255;BME280;30989;52.078;21.014;2022-07-23T02:13:32;169129.50;;;20.41;77.93
45255;BME280;30989;52.078;21.014;2022-07-23T02:15:58;169144.31;;;20.46;78.21
45255;BME280;30989;52.078;21.014;2022-07-23T02:18:24;169126.81;;;20.40;77.89
45255;BME280;30989;52.078;21.014;2022-07-23T02:20:50;169121.38;;;20.38;78.31
45255;BME280;30989;52.078;21.014;2022-07-23T02:23:16;169115.97;;;20.36;78.03
45255;BME280;30989;52.078;21.014;2022-07-23T02:25:41;169118.69;;;20.37;78.24
45255;BME280;30989;52.078;21.014;2022-07-23T02:28:08;169124.13;;;20.39;78.10
45255;BME280;30989;52.078;21.014;2022-07-23T02:30:34;169103.84;;;20.31;78.47
45255;BME280;30989;52.078;21.014;2022-07-23T02:33:00;169109.25;;;20.33;78.47
45255;BME280;30989;52.078;21.014;2022-07-23T02:35:26;169090.38;;;20.26;78.69
45255;BME280;30989;52.078;21.014;2022-07-23T02:37:51;169097.13;;;20.28;78.66
45255;BME280;30989;52.078;21.014;2022-07-23T02:40:17;169080.97;;;20.22;78.78
45255;BME280;30989;52.078;21.014;2022-07-23T02:42:43;169027.09;;;20.02;79.08
45255;BME280;30989;52.078;21.014;2022-07-23T02:45:09;169048.63;;;20.10;79.37
45255;BME280;30989;52.078;21.014;2022-07-23T02:47:35;169029.78;;;20.03;79.65
45255;BME280;30989;52.078;21.014;2022-07-23T02:50:00;169023.03;;;20.01;79.83
45255;BME280;30989;52.078;21.014;2022-07-23T02:52:28;169010.94;;;19.96;80.43
45255;BME280;30989;52.078;21.014;2022-07-23T02:54:53;168982.66;;;19.85;80.79
45255;BME280;30989;52.078;21.014;2022-07-23T02:57:18;168985.34;;;19.86;80.93
45255;BME280;30989;52.078;21.014;2022-07-23T02:59:44;168963.78;;;19.78;80.86
45255;BME280;30989;52.078;21.014;2022-07-23T03:02:09;168954.38;;;19.75;80.99
45255;BME280;30989;52.078;21.014;2022-07-23T03:04:36;168955.72;;;19.75;81.44
45255;BME280;30989;52.078;21.014;2022-07-23T03:07:02;168951.69;;;19.74;81.72
45255;BME280;30989;52.078;21.014;2022-07-23T03:09:27;168943.59;;;19.71;81.50
45255;BME280;30989;52.078;21.014;2022-07-23T03:11:53;168939.56;;;19.69;81.97
45255;BME280;30989;52.078;21.014;2022-07-23T03:14:19;168918.00;;;19.61;81.90
45255;BME280;30989;52.078;21.014;2022-07-23T03:16:44;168935.50;;;19.68;81.95
45255;BME280;30989;52.078;21.014;2022-07-23T03:19:10;168936.88;;;19.68;82.33
45255;BME280;30989;52.078;21.014;2022-07-23T03:21:36;168939.56;;;19.69;82.52
45255;BME280;30989;52.078;21.014;2022-07-23T03:24:07;168944.94;;;19.71;82.77
45255;BME280;30989;52.078;21.014;2022-07-23T03:26:33;168965.13;;;19.79;82.46
45255;BME280;30989;52.078;21.014;2022-07-23T03:29:00;168963.78;;;19.78;82.18
45255;BME280;30989;52.078;21.014;2022-07-23T03:31:26;168957.06;;;19.76;82.49
45255;BME280;30989;52.078;21.014;2022-07-23T03:33:52;168967.84;;;19.80;82.04
45255;BME280;30989;52.078;21.014;2022-07-23T03:36:17;169001.50;;;19.92;82.22
45255;BME280;30989;52.078;21.014;2022-07-23T03:38:44;169008.22;;;19.95;82.00
45255;BME280;30989;52.078;21.014;2022-07-23T03:41:10;169008.22;;;19.95;82.20
45255;BME280;30989;52.078;21.014;2022-07-23T03:43:35;169013.63;;;19.97;82.00
45255;BME280;30989;52.078;21.014;2022-07-23T03:46:01;169001.50;;;19.92;82.26
45255;BME280;30989;52.078;21.014;2022-07-23T03:48:26;169024.41;;;20.01;82.29
45255;BME280;30989;52.078;21.014;2022-07-23T03:50:52;169024.41;;;20.01;82.13
45255;BME280;30989;52.078;21.014;2022-07-23T03:53:21;169036.50;;;20.06;82.43
45255;BME280;30989;52.078;21.014;2022-07-23T03:55:46;169023.03;;;20.01;82.17
45255;BME280;30989;52.078;21.014;2022-07-23T03:58:12;169039.22;;;20.07;82.16
45255;BME280;30989;52.078;21.014;2022-07-23T04:00:37;169051.31;;;20.11;83.08
45255;BME280;30989;52.078;21.014;2022-07-23T04:03:03;169047.28;;;20.10;82.69
45255;BME280;30989;52.078;21.014;2022-07-23T04:05:29;169056.72;;;20.13;82.24
45255;BME280;30989;52.078;21.014;2022-07-23T04:08:04;169062.09;;;20.15;82.55
45255;BME280;30989;52.078;21.014;2022-07-23T04:10:30;169072.88;;;20.19;82.37
45255;BME280;30989;52.078;21.014;2022-07-23T04:12:55;169093.06;;;20.27;82.39
45255;BME280;30989;52.078;21.014;2022-07-23T04:15:21;169102.50;;;20.31;82.41
45255;BME280;30989;52.078;21.014;2022-07-23T04:17:46;169105.19;;;20.32;82.37
45255;BME280;30989;52.078;21.014;2022-07-23T04:20:13;169118.69;;;20.37;82.75
45255;BME280;30989;52.078;21.014;2022-07-23T04:22:46;169142.97;;;20.46;82.74
45255;BME280;30989;52.078;21.014;2022-07-23T04:25:12;169152.41;;;20.49;82.64
45255;BME280;30989;52.078;21.014;2022-07-23T04:27:39;169160.47;;;20.52;82.39
45255;BME280;30989;52.078;21.014;2022-07-23T04:30:05;169182.03;;;20.60;82.54
45255;BME280;30989;52.078;21.014;2022-07-23T04:32:34;169186.06;;;20.62;82.68
45255;BME280;30989;52.078;21.014;2022-07-23T04:35:00;169202.25;;;20.68;82.85
45255;BME280;30989;52.078;21.014;2022-07-23T04:37:26;169231.88;;;20.79;82.84
45255;BME280;30989;52.078;21.014;2022-07-23T04:39:51;169248.09;;;20.85;82.16
45255;BME280;30989;52.078;21.014;2022-07-23T04:42:17;169268.31;;;20.93;82.04
45255;BME280;30989;52.078;21.014;2022-07-23T04:44:42;169275.03;;;20.96;81.83
45255;BME280;30989;52.078;21.014;2022-07-23T04:47:08;169293.91;;;21.03;81.64
45255;BME280;30989;52.078;21.014;2022-07-23T04:49:36;169320.88;;;21.13;81.20
45255;BME280;30989;52.078;21.014;2022-07-23T04:52:01;169330.28;;;21.16;81.20
45255;BME280;30989;52.078;21.014;2022-07-23T04:54:29;169350.56;;;21.24;81.09
45255;BME280;30989;52.078;21.014;2022-07-23T04:56:54;169362.69;;;21.29;81.01
45255;BME280;30989;52.078;21.014;2022-07-23T04:59:20;169377.50;;;21.34;81.00
45255;BME280;30989;52.078;21.014;2022-07-23T05:01:49;169393.69;;;21.40;81.02
45255;BME280;30989;52.078;21.014;2022-07-23T05:04:14;169391.00;;;21.39;80.73
45255;BME280;30989;52.078;21.014;2022-07-23T05:06:40;169417.94;;;21.49;80.93
45255;BME280;30989;52.078;21.014;2022-07-23T05:09:06;169428.72;;;21.53;80.97
45255;BME280;30989;52.078;21.014;2022-07-23T05:11:31;169444.91;;;21.60;80.75
45255;BME280;30989;52.078;21.014;2022-07-23T05:13:58;169459.72;;;21.65;80.24
45255;BME280;30989;52.078;21.014;2022-07-23T05:16:23;169478.59;;;21.72;80.20
45255;BME280;30989;52.078;21.014;2022-07-23T05:18:50;169497.47;;;21.79;80.06
45255;BME280;30989;52.078;21.014;2022-07-23T05:21:16;169523.09;;;21.89;79.64
45255;BME280;30989;52.078;21.014;2022-07-23T05:23:43;169547.34;;;21.98;79.04
45255;BME280;30989;52.078;21.014;2022-07-23T05:26:08;169581.09;;;22.11;78.82
45255;BME280;30989;52.078;21.014;2022-07-23T05:28:35;169604.03;;;22.19;78.47
45255;BME280;30989;52.078;21.014;2022-07-23T05:31:00;169633.69;;;22.31;78.21
45255;BME280;30989;52.078;21.014;2022-07-23T05:33:27;169663.34;;;22.42;77.34
45255;BME280;30989;52.078;21.014;2022-07-23T05:35:53;169680.88;;;22.48;77.04
45255;BME280;30989;52.078;21.014;2022-07-23T05:38:26;169706.50;;;22.58;76.86
45255;BME280;30989;52.078;21.014;2022-07-23T05:40:53;169675.47;;;22.46;76.47
45255;BME280;30989;52.078;21.014;2022-07-23T05:43:19;169775.31;;;22.84;76.02
45255;BME280;30989;52.078;21.014;2022-07-23T05:45:45;169803.66;;;22.95;75.79
45255;BME280;30989;52.078;21.014;2022-07-23T05:48:10;169833.31;;;23.06;75.41
45255;BME280;30989;52.078;21.014;2022-07-23T05:50:46;169845.47;;;23.10;75.12
45255;BME280;30989;52.078;21.014;2022-07-23T05:53:27;169898.06;;;23.30;74.56
45255;BME280;30989;52.078;21.014;2022-07-23T05:56:08;169930.44;;;23.42;74.30
45255;BME280;30989;52.078;21.014;2022-07-23T05:58:35;169957.44;;;23.53;73.20
45255;BME280;30989;52.078;21.014;2022-07-23T06:01:01;169964.22;;;23.55;72.13
45255;BME280;30989;52.078;21.014;2022-07-23T06:03:31;169985.81;;;23.63;72.46
45255;BME280;30989;52.078;21.014;2022-07-23T06:05:57;169999.31;;;23.68;71.80
45255;BME280;30989;52.078;21.014;2022-07-23T06:08:23;170047.88;;;23.87;71.64
45255;BME280;30989;52.078;21.014;2022-07-23T06:10:49;170070.81;;;23.95;70.49
45255;BME280;30989;52.078;21.014;2022-07-23T06:13:14;170077.56;;;23.98;69.88
45255;BME280;30989;52.078;21.014;2022-07-23T06:15:40;170092.41;;;24.03;70.42
45255;BME280;30989;52.078;21.014;2022-07-23T06:18:06;170103.22;;;24.07;70.14
45255;BME280;30989;52.078;21.014;2022-07-23T06:20:31;170149.09;;;24.25;69.85
45255;BME280;30989;52.078;21.014;2022-07-23T06:22:57;170189.63;;;24.40;69.54
45255;BME280;30989;52.078;21.014;2022-07-23T06:25:23;170220.69;;;24.52;68.22
45255;BME280;30989;52.078;21.014;2022-07-23T06:27:48;170273.31;;;24.71;67.62
45255;BME280;30989;52.078;21.014;2022-07-23T06:30:15;170315.19;;;24.87;67.01
45255;BME280;30989;52.078;21.014;2022-07-23T06:32:44;170346.28;;;24.99;66.68
45255;BME280;30989;52.078;21.014;2022-07-23T06:35:10;170390.84;;;25.16;65.93
45255;BME280;30989;52.078;21.014;2022-07-23T06:37:35;170430.00;;;25.30;65.95
45255;BME280;30989;52.078;21.014;2022-07-23T06:40:02;170459.69;;;25.42;65.19
45255;BME280;30989;52.078;21.014;2022-07-23T06:42:28;170493.47;;;25.54;64.91
45255;BME280;30989;52.078;21.014;2022-07-23T06:44:57;170527.28;;;25.67;63.90
45255;BME280;30989;52.078;21.014;2022-07-23T06:47:23;170543.47;;;25.73;62.91
45255;BME280;30989;52.078;21.014;2022-07-23T06:49:48;170569.16;;;25.83;62.88
45255;BME280;30989;52.078;21.014;2022-07-23T06:52:14;170575.88;;;25.85;63.10
45255;BME280;30989;52.078;21.014;2022-07-23T06:54:40;170608.31;;;25.97;61.97
45255;BME280;30989;52.078;21.014;2022-07-23T06:57:05;170628.63;;;26.05;62.26
45255;BME280;30989;52.078;21.014;2022-07-23T06:59:31;170643.47;;;26.11;61.60
45255;BME280;30989;52.078;21.014;2022-07-23T07:01:58;170659.69;;;26.17;61.60
45255;BME280;30989;52.078;21.014;2022-07-23T07:04:24;170670.50;;;26.21;61.30
45255;BME280;30989;52.078;21.014;2022-07-23T07:06:49;170704.31;;;26.33;61.18
45255;BME280;30989;52.078;21.014;2022-07-23T07:09:15;170705.66;;;26.34;60.42
45255;BME280;30989;52.078;21.014;2022-07-23T07:11:40;170732.69;;;26.44;60.09
45255;BME280;30989;52.078;21.014;2022-07-23T07:14:06;170761.06;;;26.55;59.63
45255;BME280;30989;52.078;21.014;2022-07-23T07:16:32;170778.63;;;26.61;59.74
45255;BME280;30989;52.078;21.014;2022-07-23T07:18:57;170778.63;;;26.61;59.33
45255;BME280;30989;52.078;21.014;2022-07-23T07:21:23;170820.53;;;26.77;58.62
45255;BME280;30989;52.078;21.014;2022-07-23T07:23:48;170823.22;;;26.78;58.01
45255;BME280;30989;52.078;21.014;2022-07-23T07:26:14;170850.25;;;26.88;57.70
45255;BME280;30989;52.078;21.014;2022-07-23T07:28:39;170851.59;;;26.89;58.28
45255;BME280;30989;52.078;21.014;2022-07-23T07:31:05;170884.09;;;27.01;57.46
45255;BME280;30989;52.078;21.014;2022-07-23T07:33:30;170900.28;;;27.07;58.12
45255;BME280;30989;52.078;21.014;2022-07-23T07:35:56;170923.28;;;27.16;57.41
45255;BME280;30989;52.078;21.014;2022-07-23T07:38:21;170931.38;;;27.19;57.39
45255;BME280;30989;52.078;21.014;2022-07-23T07:40:47;170943.53;;;27.23;57.25
45255;BME280;30989;52.078;21.014;2022-07-23T07:43:12;170953.00;;;27.27;57.04
45255;BME280;30989;52.078;21.014;2022-07-23T07:45:38;170970.56;;;27.34;55.99
45255;BME280;30989;52.078;21.014;2022-07-23T07:48:04;170965.16;;;27.32;55.87
45255;BME280;30989;52.078;21.014;2022-07-23T07:50:29;170962.47;;;27.31;54.62
45255;BME280;30989;52.078;21.014;2022-07-23T07:52:55;170965.16;;;27.32;54.97
45255;BME280;30989;52.078;21.014;2022-07-23T07:55:20;170981.38;;;27.38;54.98
45255;BME280;30989;52.078;21.014;2022-07-23T07:57:46;170974.63;;;27.35;54.35
45255;BME280;30989;52.078;21.014;2022-07-23T08:00:12;170986.78;;;27.40;53.15
45255;BME280;30989;52.078;21.014;2022-07-23T08:02:48;170985.44;;;27.39;54.21
45255;BME280;30989;52.078;21.014;2022-07-23T08:05:14;170992.19;;;27.42;54.67
45255;BME280;30989;52.078;21.014;2022-07-23T08:07:40;170990.84;;;27.41;54.64
45255;BME280;30989;52.078;21.014;2022-07-23T08:10:09;171016.53;;;27.51;54.16
45255;BME280;30989;52.078;21.014;2022-07-23T08:12:46;171057.13;;;27.66;53.88
45255;BME280;30989;52.078;21.014;2022-07-23T08:15:13;171094.97;;;27.80;54.04
45255;BME280;30989;52.078;21.014;2022-07-23T08:17:39;171112.56;;;27.87;52.14
45255;BME280;30989;52.078;21.014;2022-07-23T08:20:05;171113.91;;;27.87;51.79
45255;BME280;30989;52.078;21.014;2022-07-23T08:22:44;171115.25;;;27.88;50.82
45255;BME280;30989;52.078;21.014;2022-07-23T08:25:09;171113.91;;;27.87;51.10
45255;BME280;30989;52.078;21.014;2022-07-23T08:27:35;171142.28;;;27.98;51.41
45255;BME280;30989;52.078;21.014;2022-07-23T08:30:01;171162.56;;;28.06;50.54
45255;BME280;30989;52.078;21.014;2022-07-23T08:32:26;171170.69;;;28.09;50.30
45255;BME280;30989;52.078;21.014;2022-07-23T08:34:52;171200.44;;;28.20;48.91
45255;BME280;30989;52.078;21.014;2022-07-23T08:37:17;171200.44;;;28.20;48.74
45255;BME280;30989;52.078;21.014;2022-07-23T08:39:43;171216.72;;;28.26;49.45
45255;BME280;30989;52.078;21.014;2022-07-23T08:42:08;171243.75;;;28.36;49.63
45255;BME280;30989;52.078;21.014;2022-07-23T08:44:35;171261.34;;;28.43;49.52
45255;BME280;30989;52.078;21.014;2022-07-23T08:47:00;171287.03;;;28.52;49.42
45255;BME280;30989;52.078;21.014;2022-07-23T08:49:27;171304.59;;;28.59;49.39
45255;BME280;30989;52.078;21.014;2022-07-23T08:51:54;171319.47;;;28.65;48.38
45255;BME280;30989;52.078;21.014;2022-07-23T08:54:21;171334.34;;;28.70;48.64
45255;BME280;30989;52.078;21.014;2022-07-23T08:56:48;171372.28;;;28.84;48.20
45255;BME280;30989;52.078;21.014;2022-07-23T08:59:13;171383.09;;;28.88;47.84
45255;BME280;30989;52.078;21.014;2022-07-23T09:01:39;171397.97;;;28.94;47.60
45255;BME280;30989;52.078;21.014;2022-07-23T09:04:05;171403.38;;;28.96;48.42
45255;BME280;30989;52.078;21.014;2022-07-23T09:06:30;171435.84;;;29.08;46.63
45255;BME280;30989;52.078;21.014;2022-07-23T09:08:56;171435.84;;;29.08;46.49
45255;BME280;30989;52.078;21.014;2022-07-23T09:11:21;171443.97;;;29.11;46.51
45255;BME280;30989;52.078;21.014;2022-07-23T09:13:49;171473.72;;;29.23;46.60
45255;BME280;30989;52.078;21.014;2022-07-23T09:16:30;171494.00;;;29.30;45.44
45255;BME280;30989;52.078;21.014;2022-07-23T09:18:57;171517.00;;;29.39;45.74
45255;BME280;30989;52.078;21.014;2022-07-23T09:21:29;171554.94;;;29.53;45.91
45255;BME280;30989;52.078;21.014;2022-07-23T09:24:10;171598.22;;;29.69;44.07
45255;BME280;30989;52.078;21.014;2022-07-23T09:26:41;171629.34;;;29.81;45.35
45255;BME280;30989;52.078;21.014;2022-07-23T09:29:18;171651.00;;;29.89;44.51
45255;BME280;30989;52.078;21.014;2022-07-23T09:31:48;171660.47;;;29.93;44.31
45255;BME280;30989;52.078;21.014;2022-07-23T09:34:26;171665.88;;;29.95;43.60
45255;BME280;30989;52.078;21.014;2022-07-23T09:37:16;171697.06;;;30.06;43.66
45255;BME280;30989;52.078;21.014;2022-07-23T09:39:43;171698.41;;;30.07;43.51
45255;BME280;30989;52.078;21.014;2022-07-23T09:44:47;171730.88;;;30.19;42.15
45255;BME280;30989;52.078;21.014;2022-07-23T09:47:13;171725.47;;;30.17;42.05
45255;BME280;30989;52.078;21.014;2022-07-23T09:49:39;171714.66;;;30.13;42.23
45255;BME280;30989;52.078;21.014;2022-07-23T09:52:05;171713.28;;;30.12;42.95
45255;BME280;30989;52.078;21.014;2022-07-23T09:54:38;171699.75;;;30.07;43.02
45255;BME280;30989;52.078;21.014;2022-07-23T09:59:33;171755.25;;;30.28;42.55
45255;BME280;30989;52.078;21.014;2022-07-23T10:02:00;171770.13;;;30.34;40.66
45255;BME280;30989;52.078;21.014;2022-07-23T10:04:28;171762.00;;;30.31;40.83
45255;BME280;30989;52.078;21.014;2022-07-23T10:07:05;171791.78;;;30.42;41.10
45255;BME280;30989;52.078;21.014;2022-07-23T10:09:48;171840.56;;;30.60;41.17
45255;BME280;30989;52.078;21.014;2022-07-23T10:12:34;171874.41;;;30.73;41.47
45255;BME280;30989;52.078;21.014;2022-07-23T10:15:01;171887.94;;;30.78;40.48
45255;BME280;30989;52.078;21.014;2022-07-23T10:17:29;171913.66;;;30.88;40.75
45255;BME280;30989;52.078;21.014;2022-07-23T10:19:55;171935.31;;;30.96;39.13
45255;BME280;30989;52.078;21.014;2022-07-23T10:22:25;171950.19;;;31.01;38.51
45255;BME280;30989;52.078;21.014;2022-07-23T10:25:04;171943.44;;;30.99;39.37
45255;BME280;30989;52.078;21.014;2022-07-23T10:36:11;172031.53;;;31.32;38.64
45255;BME280;30989;52.078;21.014;2022-07-23T10:38:55;172007.16;;;31.23;38.82
45255;BME280;30989;52.078;21.014;2022-07-23T10:41:35;172045.06;;;31.37;38.90
45255;BME280;30989;52.078;21.014;2022-07-23T10:44:13;172078.91;;;31.50;37.52
45255;BME280;30989;52.078;21.014;2022-07-23T10:46:55;172129.00;;;31.68;38.01
45255;BME280;30989;52.078;21.014;2022-07-23T10:49:30;172162.91;;;31.81;37.27
45255;BME280;30989;52.078;21.014;2022-07-23T10:54:50;172269.91;;;32.21;37.68
45255;BME280;30989;52.078;21.014;2022-07-23T10:57:18;172314.66;;;32.38;37.20
45255;BME280;30989;52.078;21.014;2022-07-23T11:02:49;172459.66;;;32.92;36.27
45255;BME280;30989;52.078;21.014;2022-07-23T11:05:18;172515.19;;;33.13;34.85
45255;BME280;30989;52.078;21.014;2022-07-23T11:08:19;172534.16;;;33.20;35.04
45255;BME280;30989;52.078;21.014;2022-07-23T11:10:50;172546.34;;;33.25;35.33
45255;BME280;30989;52.078;21.014;2022-07-23T11:26:56;172631.75;;;33.57;34.09
45255;BME280;30989;52.078;21.014;2022-07-23T11:34:45;172744.28;;;33.99;33.79
45255;BME280;30989;52.078;21.014;2022-07-23T11:37:34;172856.84;;;34.41;33.00
45255;BME280;30989;52.078;21.014;2022-07-23T11:40:02;173026.34;;;35.05;34.21
45255;BME280;30989;52.078;21.014;2022-07-23T11:42:27;173193.19;;;35.67;33.35
45255;BME280;30989;52.078;21.014;2022-07-23T11:44:53;173299.00;;;36.07;32.43
45255;BME280;30989;52.078;21.014;2022-07-23T11:47:23;173372.31;;;36.34;31.61
45255;BME280;30989;52.078;21.014;2022-07-23T11:50:08;173408.97;;;36.48;29.87
45255;BME280;30989;52.078;21.014;2022-07-23T11:52:33;173417.13;;;36.51;29.55
45255;BME280;30989;52.078;21.014;2022-07-23T11:55:02;173495.84;;;36.81;30.64
45255;BME280;30989;52.078;21.014;2022-07-23T11:57:36;173593.53;;;37.17;27.43
45255;BME280;30989;52.078;21.014;2022-07-23T12:00:09;173634.28;;;37.32;29.50
45255;BME280;30989;52.078;21.014;2022-07-23T12:02:40;173707.56;;;37.60;28.63
45255;BME280;30989;52.078;21.014;2022-07-23T12:05:06;173696.72;;;37.56;28.91
45255;BME280;30989;52.078;21.014;2022-07-23T12:07:37;173820.25;;;38.02;29.18
45255;BME280;30989;52.078;21.014;2022-07-23T12:10:28;173915.31;;;38.37;26.72
45255;BME280;30989;52.078;21.014;2022-07-23T12:12:58;173932.94;;;38.44;27.14
45255;BME280;30989;52.078;21.014;2022-07-23T12:15:29;173919.38;;;38.39;27.27
45255;BME280;30989;52.078;21.014;2022-07-23T12:17:58;173908.53;;;38.35;28.14
45255;BME280;30989;52.078;21.014;2022-07-23T12:20:29;173956.03;;;38.53;27.96
45255;BME280;30989;52.078;21.014;2022-07-23T12:22:57;173990.00;;;38.65;28.02
45255;BME280;30989;52.078;21.014;2022-07-23T12:25:26;173983.22;;;38.63;27.19
45255;BME280;30989;52.078;21.014;2022-07-23T12:28:20;173924.81;;;38.41;27.36
45255;BME280;30989;52.078;21.014;2022-07-23T12:30:51;173938.38;;;38.46;25.83
45255;BME280;30989;52.078;21.014;2022-07-23T12:35:53;174119.03;;;39.14;25.16
45255;BME280;30989;52.078;21.014;2022-07-23T12:38:20;174249.44;;;39.62;26.60
45255;BME280;30989;52.078;21.014;2022-07-23T12:40:47;174362.19;;;40.05;25.98
45255;BME280;30989;52.078;21.014;2022-07-23T12:46:11;174267.06;;;39.69;25.32
45255;BME280;30989;52.078;21.014;2022-07-23T12:51:16;174307.81;;;39.84;25.03
45255;BME280;30989;52.078;21.014;2022-07-23T12:53:44;174244.00;;;39.60;25.23
45255;BME280;30989;52.078;21.014;2022-07-23T12:56:15;174105.47;;;39.09;25.48
45255;BME280;30989;52.078;21.014;2022-07-23T12:58:45;173954.66;;;38.52;25.74
45255;BME280;30989;52.078;21.014;2022-07-23T13:04:01;173518.91;;;36.89;26.73
45255;BME280;30989;52.078;21.014;2022-07-23T13:06:30;173406.28;;;36.47;27.25
45255;BME280;30989;52.078;21.014;2022-07-23T13:08:56;173390.00;;;36.41;28.00
45255;BME280;30989;52.078;21.014;2022-07-23T13:11:22;173495.84;;;36.81;27.55
45255;BME280;30989;52.078;21.014;2022-07-23T13:13:47;173550.13;;;37.01;27.81
45255;BME280;30989;52.078;21.014;2022-07-23T13:16:13;173531.13;;;36.94;27.41
45255;BME280;30989;52.078;21.014;2022-07-23T13:18:38;173441.53;;;36.60;27.85
45255;BME280;30989;52.078;21.014;2022-07-23T13:21:04;173498.56;;;36.82;27.57
45255;BME280;30989;52.078;21.014;2022-07-23T13:23:29;173592.19;;;37.17;26.71
45255;BME280;30989;52.078;21.014;2022-07-23T13:25:55;173692.63;;;37.54;26.90
45255;BME280;30989;52.078;21.014;2022-07-23T13:28:21;173675.00;;;37.48;27.40
45255;BME280;30989;52.078;21.014;2022-07-23T13:30:48;173651.94;;;37.39;27.66
45255;BME280;30989;52.078;21.014;2022-07-23T13:33:24;173544.69;;;36.99;28.33